logo
Search for airport 
image banner adimage banner adimage banner ad
image banner ad

HKMH - Muddo Gashe

Located in , Kenya

ICAO - , IATA -

Data provided by Airmate  

General information

Coordinates: N0°45'50" E39°9'3"
Elevation is 865 feet MSL.
 
View others Airports in North-Eastern Province

Operational data

Special qualification required
Current time UTC:
Current local time:
Weather at : - ( 0 km )
METAR: KFMH 152056Z 23012G20KT 10SM BKN012 28/24 A2985
View NOTAMs / SUP AIP / TFR affecting this airport [VIEW]
Communications frequencies: [VIEW]

Runways:

RWY identifierQFULength (ft)Width (ft)SurfaceLDA (ft)
1500UNK
3300UNK

Airport contact information

Address: Kenya

Satellite view of HKMH